Friday, May 25, 2018, 8:29 PM EDT
Back to Local

KRKD, Rockland, Knox County Regional Airport

Location: Owls Head, ME, United States Lat: 44.067
Local Time: 8:29 PM EDT ( 0:29 GMT) Lon: -69.1
Time Zone: US/Eastern Elev: 55 ft

Show me the last for .
Show Decoded

2018-05-25 19:56 METAR KRKD 252356Z AUTO 25007KT 10SM CLR 23/13 A2963 RMK AO2 SLP036 T02280128
                 10267 20222 53000 =
2018-05-25 18:56 METAR KRKD 252256Z AUTO 25007KT 10SM FEW080 24/13 A2963 RMK AO2 SLP033 T02390128
                 =
2018-05-25 17:56 METAR KRKD 252156Z AUTO 24006KT 10SM BKN090 23/12 A2962 RMK AO2 SLP030 T02280117
                 =
2018-05-25 16:56 METAR KRKD 252056Z AUTO 22009G17KT 10SM CLR 24/12 A2963 RMK AO2 SLP036 T02440117
                 56007 =
2018-05-25 15:56 METAR KRKD 251956Z AUTO 24015G20KT 10SM CLR 27/13 A2964 RMK AO2 SLP037 T02670128
                 =
2018-05-25 14:56 METAR KRKD 251856Z AUTO 24013G20KT 10SM CLR 26/13 A2965 RMK AO2 SLP042 T02560133
                 =
2018-05-25 13:56 METAR KRKD 251756Z AUTO 23010G17KT 180V250 10SM CLR 27/13 A2966 RMK AO2 SLP043
                 T02670128 10272 20161 56019 =
2018-05-25 12:56 METAR KRKD 251656Z AUTO 23009G20KT 180V260 10SM CLR 27/13 A2968 RMK AO2 SLP050
                 T02670133 =
2018-05-25 11:56 METAR KRKD 251556Z AUTO 25013KT 10SM CLR 27/13 A2969 RMK AO2 SLP054 T02670128 =
2018-05-25 10:56 METAR KRKD 251456Z AUTO 25012KT 10SM CLR 25/13 A2971 RMK AO2 SLP062 T02500128
                 56025 =
2018-05-25 09:56 METAR KRKD 251356Z AUTO 25013KT 10SM CLR 23/12 A2974 RMK AO2 SLP072 T02280117 =
2018-05-25 08:56 METAR KRKD 251256Z AUTO 25011KT 10SM CLR 21/11 A2975 RMK AO2 SLP077 T02060111 =
2018-05-25 07:56 METAR KRKD 251156Z AUTO 25007KT 10SM CLR 16/11 A2978 RMK AO2 SLP088 T01610106
                 10161 20111 58010 =
2018-05-25 06:56 METAR KRKD 251056Z AUTO 26010KT 10SM CLR 13/10 A2980 RMK AO2 SLP093 T01330100 =
2018-05-25 05:56 METAR KRKD 250956Z AUTO 25010KT 10SM CLR 12/10 A2981 RMK AO2 SLP096 T01170100 =
2018-05-25 04:56 METAR KRKD 250856Z AUTO 24011G16KT 10SM CLR 11/09 A2982 RMK AO2 SLP098 T01110094
                 56038 =
2018-05-25 03:56 METAR KRKD 250756Z AUTO 23009G16KT 10SM CLR 11/09 A2984 RMK AO2 SLP108 T01110094
                 =
2018-05-25 02:56 METAR KRKD 250656Z AUTO 22009G14KT 10SM CLR 11/09 A2988 RMK AO2 PRESFR SLP119
                 T01110089 =
2018-05-25 01:56 METAR KRKD 250556Z AUTO 22007KT 10SM CLR 11/09 A2993 RMK AO2 SLP136 T01110089
                 10111 20094 58030 =
2018-05-25 00:56 METAR KRKD 250456Z AUTO 22009KT 10SM CLR 11/09 A2996 RMK AO2 SLP146 T01110089
                 401280056 =
2018-05-24 22:56 METAR KRKD 250256Z AUTO 22005KT 10SM SCT120 10/08 A3002 RMK AO2 SLP166 T01000078
                 58014 =
2018-05-24 21:56 METAR KRKD 250156Z AUTO 20008KT 10SM CLR 10/08 A3004 RMK AO2 SLP173 T01000078 =
2018-05-24 20:56 METAR KRKD 250056Z AUTO 23007KT 10SM CLR 10/08 A3005 RMK AO2 SLP178 T01000078 =

Support USWX by starting your Amazon purchase here.